KCAD/CAD METAR and TAF weather

Enter ICAO airport designator
Station Type Date Time Source
KCAD METAR 2019/12/05 15:35 UTC NOAA

KCAD 051535Z AUTO 27004KT 10SM OVC020 M02/M07 A2996 RMK AO2 T10281070


Station Type Date Time Source
KCAD Decoded METAR 2019/12/05 15:35 UTC NOAA

Cadillac / Wexford County, MI, United States (KCAD) 44-17N 085-25W
Dec 05, 2019 - 10:35 AM EST / 2019.12.05 1535 UTC
Wind: from the W (270 degrees) at 5 MPH (4 KT):0
Visibility: 10 mile(s):0
Sky conditions: overcast
Temperature: 27.0 F (-2.8 C)
Windchill: 21 F (-6 C):1
Dew Point: 19.4 F (-7.0 C)
Relative Humidity: 72%
Pressure (altimeter): 29.96 in. Hg (1014 hPa)
ob: KCAD 051535Z AUTO 27004KT 10SM OVC020 M02/M07 A2996 RMK AO2 T10281070
cycle: 15

Station Type Date Time Source
KCAD TAF UTC NOAA

Error!

Example: see airport list